09:53
Airports
History
Links
Donate
Help keep this website running!
PayPal
Bitcoin
This page is community maintained. The information is intended for PC simulator navigation or reference.
Always use approved charts for navigation.
TN32
Cambron Field
Cambron Field (TN32)
Nashville, Tennessee, United States (37221)
4
Lat/Lng:36° 2' 0.22" N / 86° 58' 0.01" W
36.033394 / -86.966669
Elevation:600'ft / 183mMSL
ID / ICAO:TN32
Runways:1
Longest:09-27
Grass 515m / 1,690ft
Nearby Weather08:53 GMT 2017-11-21
Nearby weather at KBNA, Nashville Intl located 17.3 nautical miles from TN32
Altimeter: 30.06
Visibility: 10.0 statute miles
Wind: 0 knots (from 000°)
Temp: 3°c / 37°f
Humidity: 69.6%

METAR: KBNA 210853Z 00000KT 10SM CLR 03/M02 A3006 RMK AO2 SLP181 T00281022 55008

(Powered by phpweather)
Nearby VORs <50NM
Nearby NDBs
Runway 09 / 27
Dimensions:515 x 30.5m 1690' x 100'ft
Surface:Grass
Runway 09 [A]Runway 27 [B]
Heading:090°TH 270°TH
Lat:
Lng:
36° 2' 0.22"N
86° 58' 10.39"W
36° 2' 0.22"N
86° 57' 49.63"W
User Notes and Comments
36° 2' 0.22" N / 86° 58' 0.01" W
Distance To
Airport ID:
Nearby Airports
(R) Oakley 9.6 NM
TN79 N
(U) John C Tune 11.2 NM
KJWN NNE 23°
(R) Dripping Springs Farm 15.8 NM
6TN9 W 277°
(C) Nashville Intl 17.3 NM
KBNA ( WX ) ENE 68°
(U) CORNELIA FORT AIRPARK 18.3 NM
M88 NE 53°
(R) Doc Jones Field 20.0 NM
TN73 N
4 Shultz 21.4 NM
TN81 SSE 156°
VFR Chart
Flight Planning at SkyVector.com